createdAt,value
2022-10-26T00:00:34.203Z,97278.94
2022-10-26T00:03:01.071Z,97261.66
2022-10-26T00:05:27.895Z,97277.63
2022-10-26T00:07:54.783Z,97280.13
2022-10-26T00:10:21.936Z,97282.44
2022-10-26T00:12:51.191Z,97285.38
2022-10-26T00:15:19.575Z,97281.00
2022-10-26T00:17:48.107Z,97273.50
2022-10-26T00:20:15.286Z,97279.03
2022-10-26T00:22:42.180Z,97275.69
2022-10-26T00:25:09.654Z,97282.72
2022-10-26T00:27:36.542Z,97269.53
2022-10-26T00:30:07.363Z,97264.63
2022-10-26T00:32:34.696Z,97275.84
2022-10-26T00:35:10.566Z,97272.88
2022-10-26T00:37:48.984Z,97282.72
2022-10-26T00:40:16.054Z,97273.31
2022-10-26T00:42:42.870Z,97289.03
2022-10-26T00:45:15.679Z,97275.75
2022-10-26T00:47:57.301Z,97277.97
2022-10-26T00:50:35.369Z,97280.09
2022-10-26T00:53:04.577Z,97271.66
2022-10-26T00:55:38.754Z,97268.78
2022-10-26T00:58:08.712Z,97274.16
2022-10-26T01:00:35.646Z,97265.69
2022-10-26T01:03:06.318Z,97261.31
2022-10-26T01:05:36.095Z,97257.22
2022-10-26T01:08:03.176Z,97246.53
2022-10-26T01:10:30.688Z,97246.78
2022-10-26T01:12:58.962Z,97252.81
2022-10-26T01:15:54.096Z,97252.53
2022-10-26T01:18:39.745Z,97247.16
2022-10-26T01:21:27.878Z,97260.03
2022-10-26T01:24:28.450Z,97256.94
2022-10-26T01:27:27.336Z,97259.88
2022-10-26T01:30:48.967Z,97257.50
2022-10-26T01:33:22.044Z,97255.34
2022-10-26T01:36:04.196Z,97253.41
2022-10-26T01:38:35.109Z,97258.75
2022-10-26T01:41:16.823Z,97262.69
2022-10-26T01:43:49.845Z,97260.78
2022-10-26T01:48:54.885Z,97260.06
2022-10-26T01:51:23.536Z,97246.47
2022-10-26T01:53:50.396Z,97249.00
2022-10-26T01:56:27.521Z,97217.44
2022-10-26T01:59:11.553Z,97259.72
2022-10-26T02:01:53.459Z,97256.97
2022-10-26T02:04:35.139Z,97265.81
2022-10-26T02:07:22.168Z,97256.03
2022-10-26T02:10:10.476Z,97267.25
2022-10-26T02:12:50.582Z,97268.91
2022-10-26T02:15:29.720Z,97272.72
2022-10-26T02:18:04.567Z,97272.50
2022-10-26T02:20:43.398Z,97273.31
2022-10-26T02:23:12.647Z,97265.97
2022-10-26T02:25:50.410Z,97262.00
2022-10-26T02:28:27.377Z,97256.50
2022-10-26T02:30:58.425Z,97265.13
2022-10-26T02:33:28.860Z,97269.50
2022-10-26T02:35:59.297Z,97286.72
2022-10-26T02:38:29.471Z,97266.69
2022-10-26T02:40:56.944Z,97275.88
2022-10-26T02:43:26.540Z,97286.38
2022-10-26T02:46:16.765Z,97289.50
2022-10-26T02:48:43.970Z,97299.72
2022-10-26T02:51:20.551Z,97311.53
2022-10-26T02:53:57.949Z,97310.47
2022-10-26T02:56:34.359Z,97305.38
2022-10-26T02:59:05.403Z,97310.22
2022-10-26T03:01:34.354Z,97315.25
2022-10-26T03:04:01.431Z,97304.47
2022-10-26T03:06:28.381Z,97315.03
2022-10-26T03:08:55.240Z,97312.78
2022-10-26T03:11:22.005Z,97308.59
2022-10-26T03:13:48.803Z,97311.19
2022-10-26T03:16:15.706Z,97304.91
2022-10-26T03:18:42.551Z,97318.03
2022-10-26T03:21:10.429Z,97312.34
2022-10-26T03:23:37.254Z,97309.84
2022-10-26T03:26:04.146Z,97325.25
2022-10-26T03:28:31.445Z,97316.13
2022-10-26T03:30:58.278Z,97315.41
2022-10-26T03:33:27.094Z,97319.09
2022-10-26T03:35:57.457Z,97308.19
2022-10-26T03:38:24.679Z,97317.22
2022-10-26T03:40:51.929Z,97313.88
2022-10-26T03:43:19.299Z,97317.91
2022-10-26T03:45:46.208Z,97321.91
2022-10-26T03:48:13.698Z,97324.84
2022-10-26T03:50:40.636Z,97320.78
2022-10-26T03:53:07.813Z,97329.16
2022-10-26T03:55:34.797Z,97330.31
2022-10-26T03:58:01.687Z,97310.84
2022-10-26T04:00:28.588Z,97329.78
2022-10-26T04:02:59.950Z,97328.56
2022-10-26T04:05:28.474Z,97326.88
2022-10-26T04:08:00.518Z,97329.59
2022-10-26T04:10:28.029Z,97328.63
2022-10-26T04:12:55.563Z,97333.69
2022-10-26T04:15:23.065Z,97336.72
2022-10-26T04:17:56.326Z,97321.63
2022-10-26T04:20:23.189Z,97323.19
2022-10-26T04:23:04.381Z,97328.31
2022-10-26T04:25:33.624Z,97328.97
2022-10-26T04:28:02.198Z,97330.16
2022-10-26T04:30:29.346Z,97324.78
2022-10-26T04:32:56.398Z,97309.19
2022-10-26T04:35:23.893Z,97343.00
2022-10-26T04:37:50.859Z,97337.88
2022-10-26T04:40:18.935Z,97340.09
2022-10-26T04:42:47.982Z,97336.63
2022-10-26T04:45:16.701Z,97339.47
2022-10-26T04:47:43.794Z,97344.28
2022-10-26T04:50:12.606Z,97350.44
2022-10-26T04:52:39.978Z,97345.44
2022-10-26T04:55:07.507Z,97342.28
2022-10-26T04:57:35.113Z,97366.59
2022-10-26T05:00:04.297Z,97368.41
2022-10-26T05:02:31.351Z,97364.63
2022-10-26T05:04:58.267Z,97379.91
2022-10-26T05:07:25.129Z,97374.97
2022-10-26T05:09:52.037Z,97386.88
2022-10-26T05:12:19.045Z,97372.94
2022-10-26T05:14:45.943Z,97380.19
2022-10-26T05:17:13.116Z,97389.22
2022-10-26T05:19:40.185Z,97384.19
2022-10-26T05:22:07.114Z,97393.75
2022-10-26T05:24:34.346Z,97391.56
2022-10-26T05:27:01.225Z,97393.63
2022-10-26T05:29:28.101Z,97395.84
2022-10-26T05:31:54.934Z,97407.25
2022-10-26T05:34:21.788Z,97397.91
2022-10-26T05:36:48.626Z,97396.31
2022-10-26T05:39:15.447Z,97401.84
2022-10-26T05:41:42.243Z,97397.44
2022-10-26T05:44:09.051Z,97407.59
2022-10-26T05:46:35.967Z,97418.81
2022-10-26T05:49:02.901Z,97407.75
2022-10-26T05:51:29.744Z,97408.22
2022-10-26T05:53:56.664Z,97411.19
2022-10-26T05:56:38.702Z,97418.50
2022-10-26T05:59:12.172Z,97426.88
2022-10-26T06:01:51.406Z,97427.28
2022-10-26T06:04:28.092Z,97415.31
2022-10-26T06:06:55.422Z,97431.00
2022-10-26T06:09:22.869Z,97439.66
2022-10-26T06:14:22.465Z,97428.34
2022-10-26T06:17:08.318Z,97440.44
2022-10-26T06:20:04.002Z,97431.88
2022-10-26T06:22:43.323Z,97442.50
2022-10-26T06:25:38.434Z,97452.84
2022-10-26T06:28:36.077Z,97450.00
2022-10-26T06:31:03.035Z,97449.72
2022-10-26T06:33:30.911Z,97442.59
2022-10-26T06:36:27.541Z,97457.88
2022-10-26T06:39:10.678Z,97452.72
2022-10-26T06:41:37.842Z,97451.41
2022-10-26T06:44:06.027Z,97456.53
2022-10-26T06:46:48.730Z,97461.00
2022-10-26T06:49:41.042Z,97469.75
2022-10-26T06:52:07.880Z,97475.75
2022-10-26T06:54:52.534Z,97470.84
2022-10-26T06:57:21.774Z,97478.13
2022-10-26T06:59:54.352Z,97489.97
2022-10-26T07:02:21.850Z,97476.19
2022-10-26T07:04:48.995Z,97489.97
2022-10-26T07:07:21.920Z,97486.00
2022-10-26T07:09:49.439Z,97489.63
2022-10-26T07:12:16.358Z,97468.81
2022-10-26T07:14:43.326Z,97482.09
2022-10-26T07:17:10.518Z,97471.56
2022-10-26T07:19:37.459Z,97481.94
2022-10-26T07:22:04.521Z,97463.91
2022-10-26T07:24:31.722Z,97473.94
2022-10-26T07:26:59.282Z,97483.50
2022-10-26T07:29:27.348Z,97483.84
2022-10-26T07:34:26.348Z,97476.94
2022-10-26T07:36:53.206Z,97482.28
2022-10-26T07:39:20.107Z,97482.50
2022-10-26T07:41:47.495Z,97463.41
2022-10-26T07:44:14.467Z,97478.94
2022-10-26T07:46:41.461Z,97478.81
2022-10-26T07:49:09.553Z,97466.72
2022-10-26T07:51:36.715Z,97467.06
2022-10-26T07:54:03.777Z,97473.25
2022-10-26T07:56:30.662Z,97472.84
2022-10-26T07:58:58.212Z,97464.28
2022-10-26T08:01:25.396Z,97473.91
2022-10-26T08:03:56.598Z,97466.78
2022-10-26T08:06:24.024Z,97475.50
2022-10-26T08:08:51.924Z,97474.38
2022-10-26T08:11:19.035Z,97480.63
2022-10-26T08:13:46.087Z,97481.91
2022-10-26T08:16:13.523Z,97474.97
2022-10-26T08:18:40.411Z,97477.63
2022-10-26T08:21:13.648Z,97475.97
2022-10-26T08:23:45.372Z,97472.81
2022-10-26T08:26:12.239Z,97470.97
2022-10-26T08:28:40.032Z,97473.13
2022-10-26T08:31:07.748Z,97476.84
2022-10-26T08:33:34.750Z,97472.78
2022-10-26T08:36:04.947Z,97471.19
2022-10-26T08:38:33.959Z,97473.13
2022-10-26T08:41:07.020Z,97466.56
2022-10-26T08:43:58.915Z,97458.84
2022-10-26T08:46:36.387Z,97473.81
2022-10-26T08:49:19.308Z,97472.44
2022-10-26T08:51:49.527Z,97476.63
2022-10-26T08:54:27.022Z,97479.63
2022-10-26T08:56:58.472Z,97478.03
2022-10-26T08:59:36.051Z,97486.75
2022-10-26T09:02:03.236Z,97487.69
2022-10-26T09:04:32.387Z,97473.59
2022-10-26T09:07:14.478Z,97486.44
2022-10-26T09:10:11.728Z,97480.69
2022-10-26T09:12:53.564Z,97473.31
2022-10-26T09:15:55.409Z,97478.28
2022-10-26T09:21:19.251Z,97480.13
2022-10-26T09:23:57.311Z,97478.78
2022-10-26T09:26:54.660Z,97481.00
2022-10-26T09:29:39.945Z,97482.66
2022-10-26T09:32:15.905Z,97486.50
2022-10-26T09:34:50.406Z,97495.13
2022-10-26T09:37:25.752Z,97483.41
2022-10-26T09:42:24.370Z,97487.78
2022-10-26T09:44:58.646Z,97484.88
2022-10-26T09:47:40.482Z,97485.25
2022-10-26T09:50:39.289Z,97475.69
2022-10-26T09:53:06.667Z,97481.56
2022-10-26T09:55:39.142Z,97482.38
2022-10-26T09:58:14.279Z,97482.84
2022-10-26T10:00:43.596Z,97463.09
2022-10-26T10:03:39.614Z,97477.53
2022-10-26T10:06:20.595Z,97475.06
2022-10-26T10:09:06.356Z,97469.50
2022-10-26T10:11:41.386Z,97470.84
2022-10-26T10:14:14.406Z,97470.16
2022-10-26T10:16:49.708Z,97454.28
2022-10-26T10:19:28.160Z,97469.50
2022-10-26T10:22:09.019Z,97465.03
2022-10-26T10:24:40.039Z,97466.03
2022-10-26T10:27:13.251Z,97455.00
2022-10-26T10:30:04.181Z,97453.44
2022-10-26T10:32:35.760Z,97460.63
2022-10-26T10:35:24.281Z,97434.38
2022-10-26T10:37:52.488Z,97446.84
2022-10-26T10:40:26.549Z,97439.56
2022-10-26T10:43:03.081Z,97445.06
2022-10-26T10:45:31.540Z,97446.00
2022-10-26T10:48:05.752Z,97444.97
2022-10-26T10:50:34.685Z,97432.38
2022-10-26T10:53:26.971Z,97441.91
2022-10-26T10:56:35.697Z,97434.47
2022-10-26T10:59:15.544Z,97425.69
2022-10-26T11:01:59.397Z,97423.06
2022-10-26T11:04:45.729Z,97422.16
2022-10-26T11:07:15.501Z,97433.88
2022-10-26T11:09:46.842Z,97427.50
2022-10-26T11:12:37.867Z,97433.47
2022-10-26T11:15:14.460Z,97429.25
2022-10-26T11:17:53.264Z,97431.63
2022-10-26T11:20:24.759Z,97429.34
2022-10-26T11:23:13.037Z,97420.13
2022-10-26T11:25:42.739Z,97427.97
2022-10-26T11:28:24.340Z,97416.28
2022-10-26T11:30:59.166Z,97419.34
2022-10-26T11:33:32.314Z,97425.09
2022-10-26T11:36:09.058Z,97434.50
2022-10-26T13:26:06.090Z,97435.03
2022-10-26T13:28:38.953Z,97427.00
2022-10-26T13:31:16.906Z,97419.31
2022-10-26T13:33:45.867Z,97431.81
2022-10-26T13:36:34.217Z,97437.34
2022-10-26T13:39:06.547Z,97440.72
2022-10-26T13:41:37.998Z,97446.91
2022-10-26T13:44:13.956Z,97438.53
2022-10-26T13:46:44.352Z,97441.13
2022-10-26T13:49:24.939Z,97442.09
2022-10-26T13:55:18.521Z,97449.13
2022-10-26T13:57:55.712Z,97443.31
2022-10-26T14:00:23.470Z,97439.44
2022-10-26T14:02:50.609Z,97450.66
2022-10-26T14:05:19.246Z,97447.28
2022-10-26T14:07:55.688Z,97460.69
2022-10-26T14:10:35.322Z,97461.19
2022-10-26T14:13:08.408Z,97455.38
2022-10-26T14:15:36.790Z,97461.28
2022-10-26T14:18:04.883Z,97450.56
2022-10-26T14:20:32.416Z,97463.66
2022-10-26T14:23:00.055Z,97477.44
2022-10-26T14:25:42.293Z,97465.28
2022-10-26T14:28:27.476Z,97464.50
2022-10-26T14:30:54.445Z,97470.19
2022-10-26T14:33:29.170Z,97470.47
2022-10-26T14:35:56.486Z,97468.50
2022-10-26T14:38:27.745Z,97479.88
2022-10-26T14:40:57.674Z,97475.16
2022-10-26T14:43:25.976Z,97484.75
2022-10-26T14:45:54.473Z,97481.13
2022-10-26T14:48:21.432Z,97485.84
2022-10-26T14:51:10.765Z,97494.63
2022-10-26T14:53:48.085Z,97487.13
2022-10-26T14:56:24.559Z,97485.44
2022-10-26T14:58:53.161Z,97476.41
2022-10-26T15:01:23.042Z,97482.66
2022-10-26T15:03:58.318Z,97493.59
2022-10-26T15:06:27.993Z,97491.91
2022-10-26T15:08:57.508Z,97487.56
2022-10-26T15:11:25.505Z,97489.63
2022-10-26T15:13:53.837Z,97495.88
2022-10-26T15:16:23.328Z,97498.78
2022-10-26T15:18:54.533Z,97493.19
2022-10-26T15:21:45.347Z,97511.13
2022-10-26T15:24:21.254Z,97512.38
2022-10-26T15:26:48.475Z,97514.91
2022-10-26T15:29:34.708Z,97523.50
2022-10-26T15:32:03.104Z,97524.31
2022-10-26T15:34:30.121Z,97518.88
2022-10-26T15:36:57.039Z,97535.28
2022-10-26T15:39:26.823Z,97544.06
2022-10-26T15:41:54.358Z,97545.38
2022-10-26T15:44:22.428Z,97542.50
2022-10-26T15:46:50.166Z,97536.28
2022-10-26T15:49:19.735Z,97549.47
2022-10-26T15:51:47.983Z,97556.63
2022-10-26T15:54:15.208Z,97553.94
2022-10-26T15:56:43.860Z,97558.63
2022-10-26T15:59:22.181Z,97563.91
2022-10-26T16:01:52.129Z,97566.53
2022-10-26T16:04:19.114Z,97569.19
2022-10-26T16:06:46.327Z,97569.72
2022-10-26T16:09:16.152Z,97578.47
2022-10-26T16:11:44.551Z,97554.97
2022-10-26T16:14:13.023Z,97581.94
2022-10-26T16:16:40.152Z,97566.13
2022-10-26T16:19:29.758Z,97585.00
2022-10-26T16:21:56.698Z,97587.63
2022-10-26T16:24:23.667Z,97594.91
2022-10-26T16:26:50.573Z,97561.13
2022-10-26T16:29:17.883Z,97595.97
2022-10-26T16:31:45.088Z,97596.25
2022-10-26T16:34:12.283Z,97618.84
2022-10-26T16:36:40.979Z,97618.13
2022-10-26T16:39:12.348Z,97563.94
2022-10-26T16:41:39.571Z,97587.78
2022-10-26T16:44:09.728Z,97557.41
2022-10-26T16:46:36.807Z,97595.50
2022-10-26T16:49:03.775Z,97621.72
2022-10-26T16:51:30.741Z,97612.03
2022-10-26T16:53:57.741Z,97632.47
2022-10-26T16:56:27.066Z,97646.50
2022-10-26T16:58:54.663Z,97647.47
2022-10-26T17:01:21.712Z,97657.28
2022-10-26T17:03:50.854Z,97646.63
2022-10-26T17:06:18.609Z,97653.13
2022-10-26T17:08:45.897Z,97653.69
2022-10-26T17:11:17.686Z,97659.75
2022-10-26T17:13:45.157Z,97667.19
2022-10-26T17:16:18.233Z,97664.88
2022-10-26T17:18:47.298Z,97660.66
2022-10-26T17:21:16.669Z,97663.81
2022-10-26T17:23:43.828Z,97670.22
2022-10-26T17:26:15.138Z,97673.38
2022-10-26T17:28:42.085Z,97667.91
2022-10-26T17:31:14.957Z,97674.78
2022-10-26T17:33:43.667Z,97670.38
2022-10-26T17:36:12.827Z,97675.97
2022-10-26T17:38:41.490Z,97675.03
2022-10-26T17:41:10.744Z,97679.00
2022-10-26T17:43:39.572Z,97685.53
2022-10-26T17:46:12.399Z,97682.19
2022-10-26T17:48:39.288Z,97690.31
2022-10-26T17:51:14.574Z,97684.28
2022-10-26T17:53:41.611Z,97691.28
2022-10-26T17:56:11.866Z,97678.63
2022-10-26T17:58:39.464Z,97687.41
2022-10-26T18:01:14.371Z,97688.56
2022-10-26T18:03:42.534Z,97695.69
2022-10-26T18:06:12.316Z,97693.94
2022-10-26T18:08:39.633Z,97683.75
2022-10-26T18:11:11.789Z,97704.41
2022-10-26T18:13:38.733Z,97702.84
2022-10-26T18:16:10.147Z,97703.47
2022-10-26T18:18:38.493Z,97619.09
2022-10-26T18:21:10.848Z,97694.78
2022-10-26T18:23:38.318Z,97687.31
2022-10-26T18:26:14.291Z,97712.88
2022-10-26T18:28:41.743Z,97695.75
2022-10-26T18:31:10.953Z,97701.78
2022-10-26T18:33:38.230Z,97706.50
2022-10-26T18:36:14.167Z,97717.16
2022-10-26T18:38:41.615Z,97724.06
2022-10-26T18:41:11.814Z,97724.50
2022-10-26T18:43:43.275Z,97721.34
2022-10-26T18:46:31.686Z,97719.16
2022-10-26T18:49:00.876Z,97737.97
2022-10-26T18:51:33.698Z,97737.97
2022-10-26T18:54:01.517Z,97732.06
2022-10-26T18:56:28.882Z,97747.81
2022-10-26T18:58:58.814Z,97744.03
2022-10-26T19:01:27.376Z,97752.03
2022-10-26T19:03:56.981Z,97765.03
2022-10-26T19:06:26.677Z,97758.06
2022-10-26T19:08:53.948Z,97764.56
2022-10-26T19:11:23.342Z,97770.00
2022-10-26T19:13:51.466Z,97762.88
2022-10-26T19:16:40.737Z,97771.25
2022-10-26T19:19:08.867Z,97772.63
2022-10-26T19:21:36.727Z,97785.47
2022-10-26T19:24:03.665Z,97780.22
2022-10-26T19:26:36.821Z,97791.41
2022-10-26T19:29:06.482Z,97787.19
2022-10-26T19:31:35.673Z,97786.28
2022-10-26T19:34:03.531Z,97779.25
2022-10-26T19:36:30.676Z,97789.03
2022-10-26T19:38:57.790Z,97799.25
2022-10-26T19:41:26.894Z,97791.88
2022-10-26T19:46:32.730Z,97798.97
2022-10-26T19:49:01.731Z,97791.69
2022-10-26T19:51:30.524Z,97803.81
2022-10-26T19:54:03.936Z,97794.66
2022-10-26T19:56:32.065Z,97806.03
2022-10-26T19:58:59.438Z,97810.88
2022-10-26T20:01:26.621Z,97811.13
2022-10-26T20:03:53.552Z,97810.28
2022-10-26T20:06:20.629Z,97818.84
2022-10-26T20:08:49.089Z,97814.97
2022-10-26T20:11:17.529Z,97811.97
2022-10-26T20:13:45.697Z,97826.50
2022-10-26T20:16:14.438Z,97831.94
2022-10-26T20:18:44.387Z,97830.44
2022-10-26T20:21:16.586Z,97832.63
2022-10-26T20:23:44.137Z,97841.25
2022-10-26T20:26:18.337Z,97840.75
2022-10-26T20:28:47.658Z,97855.88
2022-10-26T20:31:14.471Z,97851.09
2022-10-26T20:33:41.411Z,97855.19
2022-10-26T20:36:08.494Z,97854.16
2022-10-26T20:38:35.589Z,97858.94
2022-10-26T20:41:06.209Z,97859.88
2022-10-26T20:43:41.602Z,97856.09
2022-10-26T20:46:11.335Z,97865.03
2022-10-26T20:48:38.846Z,97859.19
2022-10-26T20:51:25.432Z,97852.56
2022-10-26T20:54:20.243Z,97857.13
2022-10-26T20:56:48.894Z,97859.97
2022-10-26T20:59:39.655Z,97861.00
2022-10-26T21:02:09.828Z,97850.28
2022-10-26T21:04:36.942Z,97864.97
2022-10-26T21:07:53.928Z,97864.53
2022-10-26T21:10:20.859Z,97870.88
2022-10-26T21:12:48.123Z,97875.34
2022-10-26T21:15:15.267Z,97876.19
2022-10-26T21:17:42.135Z,97871.75
2022-10-26T21:20:09.341Z,97874.88
2022-10-26T21:22:36.191Z,97872.53
2022-10-26T21:25:03.118Z,97874.13
2022-10-26T21:27:30.329Z,97838.22
2022-10-26T21:29:57.281Z,97882.31
2022-10-26T21:32:24.155Z,97881.22
2022-10-26T21:34:51.015Z,97880.66
2022-10-26T21:37:17.837Z,97879.50
2022-10-26T21:39:44.672Z,97883.81
2022-10-26T21:42:11.579Z,97885.16
2022-10-26T21:44:41.218Z,97868.56
2022-10-26T21:47:09.435Z,97882.72
2022-10-26T21:49:36.461Z,97878.59
2022-10-26T21:52:03.653Z,97885.31
2022-10-26T21:54:30.633Z,97879.34
2022-10-26T21:56:57.460Z,97887.66
2022-10-26T21:59:24.531Z,97891.97
2022-10-26T22:01:51.517Z,97879.69
2022-10-26T22:04:18.468Z,97892.41
2022-10-26T22:06:45.275Z,97883.38
2022-10-26T22:09:12.075Z,97894.94
2022-10-26T22:11:38.949Z,97893.38
2022-10-26T22:14:05.879Z,97883.22
2022-10-26T22:16:32.956Z,97886.31
2022-10-26T22:19:05.806Z,97889.75
2022-10-26T22:21:35.434Z,97886.69
2022-10-26T22:24:02.344Z,97894.13
2022-10-26T22:26:29.478Z,97895.66
2022-10-26T22:28:57.581Z,97892.81
2022-10-26T22:34:07.556Z,97906.63
2022-10-26T22:36:35.478Z,97900.09
2022-10-26T22:39:02.948Z,97896.28
2022-10-26T22:41:30.143Z,97900.72
2022-10-26T22:43:56.998Z,97899.75
2022-10-26T22:46:25.832Z,97909.56
2022-10-26T22:48:54.575Z,97903.72
2022-10-26T22:51:23.102Z,97909.84
2022-10-26T22:53:54.794Z,97908.97
2022-10-26T22:56:23.503Z,97908.31
2022-10-26T22:58:52.071Z,97911.75
2022-10-26T23:01:22.071Z,97906.34
2022-10-26T23:03:49.248Z,97913.72
2022-10-26T23:06:18.489Z,97917.56
2022-10-26T23:08:45.815Z,97919.81
2022-10-26T23:11:15.191Z,97923.59
2022-10-26T23:13:42.530Z,97921.59
2022-10-26T23:16:20.322Z,97926.91
2022-10-26T23:18:48.411Z,97916.31
2022-10-26T23:21:16.911Z,97921.13
2022-10-26T23:23:44.127Z,97922.19
2022-10-26T23:26:14.614Z,97927.72
2022-10-26T23:28:42.634Z,97925.06
2022-10-26T23:31:17.216Z,97924.75
2022-10-26T23:33:44.376Z,97936.94
2022-10-26T23:36:11.870Z,97930.41
2022-10-26T23:38:38.778Z,97924.66
2022-10-26T23:41:07.196Z,97932.63
2022-10-26T23:43:36.477Z,97944.00
2022-10-26T23:46:03.757Z,97948.31
2022-10-26T23:48:30.667Z,97932.41
2022-10-26T23:50:57.518Z,97938.34
2022-10-26T23:53:25.558Z,97945.00
2022-10-26T23:55:52.479Z,97948.47
2022-10-26T23:58:19.644Z,97939.75
